Bambouli Airport


Codes: FEGB/
Name: Bambouli Airport
City: Bambouli
Country: Central African Republic
Elevation: 2264 ft.

Photos at Bambouli Airport


   Photos courtesy of SpottingLog. You can add your own sightings and photos by signing up for a free trial today.



No photos found.

Weather at Bambouli Airport


Time (UTC)DescriptionTempratureWindCloud coverageVisibilityPressureHumidity
16-Jun-2024 00:00Broken Clouds20°C4 mph, SW81%10000m1010hPa97%
16-Jun-2024 03:00Light Rain20°C4 mph, SW86%10000m1011hPa98%
16-Jun-2024 06:00Light Rain20°C4 mph, SW92%10000m1012hPa96%
16-Jun-2024 09:00Overcast Clouds27°C7 mph, SW98%10000m1012hPa63%
16-Jun-2024 12:00Overcast Clouds30°C7 mph, SW96%10000m1009hPa48%
16-Jun-2024 15:00Overcast Clouds29°C4 mph, W88%10000m1007hPa54%
16-Jun-2024 18:00Light Rain22°C7 mph, SW90%10000m1011hPa88%
16-Jun-2024 21:00Light Rain21°C7 mph, S97%10000m1012hPa94%
17-Jun-2024 00:00Overcast Clouds20°C7 mph, SW98%10000m1011hPa96%
17-Jun-2024 03:00Overcast Clouds19°C4 mph, SW95%10000m1012hPa97%
17-Jun-2024 06:00Overcast Clouds23°C7 mph, SW92%10000m1014hPa84%
17-Jun-2024 09:00Scattered Clouds30°C4 mph, SW42%10000m1013hPa48%
17-Jun-2024 12:00Scattered Clouds32°C4 mph, SW48%10000m1010hPa42%
17-Jun-2024 15:00Broken Clouds28°C4 mph, S77%10000m1009hPa58%
17-Jun-2024 18:00Broken Clouds23°C2 mph, SW73%10000m1011hPa78%
17-Jun-2024 21:00Light Rain20°C4 mph, SW32%10000m1013hPa89%
18-Jun-2024 00:00Light Rain19°C4 mph, SW51%10000m1012hPa97%
18-Jun-2024 03:00Light Rain19°C4 mph, SW83%10000m1013hPa97%
18-Jun-2024 06:00Overcast Clouds22°C7 mph, SW90%10000m1014hPa85%
18-Jun-2024 09:00Few Clouds30°C4 mph, SW24%10000m1013hPa48%
18-Jun-2024 12:00Scattered Clouds33°C4 mph, SE43%10000m1010hPa36%
18-Jun-2024 15:00Overcast Clouds31°C4 mph, SE85%10000m1009hPa45%
18-Jun-2024 18:00Light Rain23°C2 mph, S60%10000m1011hPa67%
18-Jun-2024 21:00Scattered Clouds22°C2 mph, N50%10000m1012hPa74%
19-Jun-2024 00:00Broken Clouds20°C4 mph, N55%10000m1011hPa83%
19-Jun-2024 03:00Broken Clouds19°C2 mph, W77%10000m1012hPa91%
19-Jun-2024 06:00Broken Clouds24°C2 mph, SW66%10000m1013hPa69%
19-Jun-2024 09:00Few Clouds31°C4 mph, S13%10000m1011hPa45%
19-Jun-2024 12:00Few Clouds33°C7 mph, SE22%10000m1008hPa36%
19-Jun-2024 15:00Broken Clouds31°C2 mph, SE65%10000m1008hPa48%
19-Jun-2024 18:00Light Rain22°C4 mph, W48%10000m1011hPa81%
19-Jun-2024 21:00Light Rain21°C4 mph, SW7%10000m1012hPa81%
20-Jun-2024 00:00Clear Sky20°C4 mph, SW9%10000m1011hPa88%
20-Jun-2024 03:00Clear Sky19°C0 mph, NW7%10000m1012hPa91%
20-Jun-2024 06:00Few Clouds24°C2 mph, NW13%10000m1013hPa72%
20-Jun-2024 09:00Broken Clouds33°C2 mph, SE76%10000m1011hPa44%
20-Jun-2024 12:00Scattered Clouds35°C7 mph, SE40%10000m1008hPa33%
20-Jun-2024 15:00Scattered Clouds32°C7 mph, E50%10000m1008hPa44%
20-Jun-2024 18:00Light Rain22°C2 mph, SW75%10000m1011hPa83%
20-Jun-2024 21:00Broken Clouds21°C2 mph, SE79%10000m1012hPa83%